sensor_id;sensor_type;location;lat;lon;timestamp;P1;durP1;ratioP1;P2;durP2;ratioP2
42662;SDS011;44330;51.360;6.686;2023-03-16T00:01:09;9.18;;;3.20;;
42662;SDS011;44330;51.360;6.686;2023-03-16T00:03:35;9.70;;;3.88;;
42662;SDS011;44330;51.360;6.686;2023-03-16T00:06:01;8.15;;;3.22;;
42662;SDS011;44330;51.360;6.686;2023-03-16T00:08:27;8.65;;;3.25;;
42662;SDS011;44330;51.360;6.686;2023-03-16T00:10:52;10.50;;;2.95;;
42662;SDS011;44330;51.360;6.686;2023-03-16T00:13:19;7.95;;;2.65;;
42662;SDS011;44330;51.360;6.686;2023-03-16T00:15:57;6.28;;;3.42;;
42662;SDS011;44330;51.360;6.686;2023-03-16T00:18:25;6.68;;;3.20;;
42662;SDS011;44330;51.360;6.686;2023-03-16T00:20:53;6.82;;;3.40;;
42662;SDS011;44330;51.360;6.686;2023-03-16T00:23:19;8.02;;;3.03;;
42662;SDS011;44330;51.360;6.686;2023-03-16T00:25:56;14.75;;;3.75;;
42662;SDS011;44330;51.360;6.686;2023-03-16T00:28:23;6.63;;;2.95;;
42662;SDS011;44330;51.360;6.686;2023-03-16T00:30:50;11.02;;;3.80;;
42662;SDS011;44330;51.360;6.686;2023-03-16T00:33:16;10.10;;;3.83;;
42662;SDS011;44330;51.360;6.686;2023-03-16T00:35:45;5.90;;;3.72;;
42662;SDS011;44330;51.360;6.686;2023-03-16T00:38:15;7.80;;;3.78;;
42662;SDS011;44330;51.360;6.686;2023-03-16T00:40:42;9.35;;;4.22;;
42662;SDS011;44330;51.360;6.686;2023-03-16T00:43:07;10.93;;;3.28;;
42662;SDS011;44330;51.360;6.686;2023-03-16T00:45:33;9.70;;;3.50;;
42662;SDS011;44330;51.360;6.686;2023-03-16T00:47:58;15.55;;;3.78;;
42662;SDS011;44330;51.360;6.686;2023-03-16T00:50:25;9.57;;;4.13;;
42662;SDS011;44330;51.360;6.686;2023-03-16T00:52:51;11.52;;;3.50;;
42662;SDS011;44330;51.360;6.686;2023-03-16T00:55:17;10.38;;;3.85;;
42662;SDS011;44330;51.360;6.686;2023-03-16T00:57:43;9.82;;;4.00;;
42662;SDS011;44330;51.360;6.686;2023-03-16T01:00:09;8.43;;;3.88;;
42662;SDS011;44330;51.360;6.686;2023-03-16T01:02:38;8.50;;;3.88;;
42662;SDS011;44330;51.360;6.686;2023-03-16T01:05:04;7.05;;;3.17;;
42662;SDS011;44330;51.360;6.686;2023-03-16T01:07:30;10.70;;;3.85;;
42662;SDS011;44330;51.360;6.686;2023-03-16T01:09:56;10.30;;;3.97;;
42662;SDS011;44330;51.360;6.686;2023-03-16T01:12:22;10.07;;;3.95;;
42662;SDS011;44330;51.360;6.686;2023-03-16T01:14:48;5.93;;;3.25;;
42662;SDS011;44330;51.360;6.686;2023-03-16T01:17:14;9.75;;;3.60;;
42662;SDS011;44330;51.360;6.686;2023-03-16T01:19:41;8.80;;;4.10;;
42662;SDS011;44330;51.360;6.686;2023-03-16T01:22:08;9.00;;;3.40;;
42662;SDS011;44330;51.360;6.686;2023-03-16T01:24:35;10.43;;;3.92;;
42662;SDS011;44330;51.360;6.686;2023-03-16T01:27:02;8.20;;;3.55;;
42662;SDS011;44330;51.360;6.686;2023-03-16T01:29:28;11.48;;;4.03;;
42662;SDS011;44330;51.360;6.686;2023-03-16T01:31:54;12.70;;;3.53;;
42662;SDS011;44330;51.360;6.686;2023-03-16T01:34:20;6.90;;;3.70;;
42662;SDS011;44330;51.360;6.686;2023-03-16T01:36:46;11.85;;;4.05;;
42662;SDS011;44330;51.360;6.686;2023-03-16T01:39:13;8.75;;;3.53;;
42662;SDS011;44330;51.360;6.686;2023-03-16T01:41:39;8.30;;;3.72;;
42662;SDS011;44330;51.360;6.686;2023-03-16T01:44:06;13.18;;;3.72;;
42662;SDS011;44330;51.360;6.686;2023-03-16T01:46:35;9.25;;;3.72;;
42662;SDS011;44330;51.360;6.686;2023-03-16T01:53:57;13.13;;;4.72;;
42662;SDS011;44330;51.360;6.686;2023-03-16T01:56:32;10.02;;;3.20;;
42662;SDS011;44330;51.360;6.686;2023-03-16T01:59:01;9.88;;;3.35;;
42662;SDS011;44330;51.360;6.686;2023-03-16T02:01:31;5.82;;;3.03;;
42662;SDS011;44330;51.360;6.686;2023-03-16T02:04:00;7.95;;;3.20;;
42662;SDS011;44330;51.360;6.686;2023-03-16T02:06:31;9.88;;;3.38;;
42662;SDS011;44330;51.360;6.686;2023-03-16T02:08:58;8.77;;;3.10;;
42662;SDS011;44330;51.360;6.686;2023-03-16T02:11:24;9.18;;;3.70;;
42662;SDS011;44330;51.360;6.686;2023-03-16T02:13:50;6.13;;;3.13;;
42662;SDS011;44330;51.360;6.686;2023-03-16T02:16:17;6.38;;;3.88;;
42662;SDS011;44330;51.360;6.686;2023-03-16T02:18:46;8.45;;;3.08;;
42662;SDS011;44330;51.360;6.686;2023-03-16T02:21:17;6.63;;;2.95;;
42662;SDS011;44330;51.360;6.686;2023-03-16T02:24:02;9.82;;;3.13;;
42662;SDS011;44330;51.360;6.686;2023-03-16T02:32:16;6.60;;;2.80;;
42662;SDS011;44330;51.360;6.686;2023-03-16T02:34:42;8.98;;;3.00;;
42662;SDS011;44330;51.360;6.686;2023-03-16T02:37:08;6.90;;;2.78;;
42662;SDS011;44330;51.360;6.686;2023-03-16T02:39:35;8.00;;;2.85;;
42662;SDS011;44330;51.360;6.686;2023-03-16T02:42:01;6.45;;;3.10;;
42662;SDS011;44330;51.360;6.686;2023-03-16T02:44:28;6.53;;;3.00;;
42662;SDS011;44330;51.360;6.686;2023-03-16T02:46:58;12.30;;;3.03;;
42662;SDS011;44330;51.360;6.686;2023-03-16T02:51:58;12.35;;;3.13;;
42662;SDS011;44330;51.360;6.686;2023-03-16T02:54:24;6.40;;;2.92;;
42662;SDS011;44330;51.360;6.686;2023-03-16T02:56:49;6.57;;;2.80;;
42662;SDS011;44330;51.360;6.686;2023-03-16T02:59:15;7.72;;;3.05;;
42662;SDS011;44330;51.360;6.686;2023-03-16T03:01:41;9.40;;;2.80;;
42662;SDS011;44330;51.360;6.686;2023-03-16T03:04:07;7.30;;;2.90;;
42662;SDS011;44330;51.360;6.686;2023-03-16T03:06:32;7.50;;;2.53;;
42662;SDS011;44330;51.360;6.686;2023-03-16T03:08:59;6.70;;;2.75;;
42662;SDS011;44330;51.360;6.686;2023-03-16T03:11:26;7.13;;;2.80;;
42662;SDS011;44330;51.360;6.686;2023-03-16T03:13:52;6.22;;;2.83;;
42662;SDS011;44330;51.360;6.686;2023-03-16T03:16:18;6.47;;;2.40;;
42662;SDS011;44330;51.360;6.686;2023-03-16T03:18:45;5.88;;;2.97;;
42662;SDS011;44330;51.360;6.686;2023-03-16T03:21:11;12.82;;;3.00;;
42662;SDS011;44330;51.360;6.686;2023-03-16T03:23:36;5.25;;;2.65;;
42662;SDS011;44330;51.360;6.686;2023-03-16T03:26:02;7.22;;;3.33;;
42662;SDS011;44330;51.360;6.686;2023-03-16T03:28:28;7.45;;;2.60;;
42662;SDS011;44330;51.360;6.686;2023-03-16T03:30:54;4.90;;;2.63;;
42662;SDS011;44330;51.360;6.686;2023-03-16T03:33:20;9.38;;;2.78;;
42662;SDS011;44330;51.360;6.686;2023-03-16T03:35:46;6.57;;;2.88;;
42662;SDS011;44330;51.360;6.686;2023-03-16T03:38:17;5.43;;;2.35;;
42662;SDS011;44330;51.360;6.686;2023-03-16T03:40:43;5.32;;;2.70;;
42662;SDS011;44330;51.360;6.686;2023-03-16T03:43:08;5.00;;;2.60;;
42662;SDS011;44330;51.360;6.686;2023-03-16T03:45:34;5.72;;;2.80;;
42662;SDS011;44330;51.360;6.686;2023-03-16T03:47:59;7.22;;;2.92;;
42662;SDS011;44330;51.360;6.686;2023-03-16T03:50:25;6.10;;;2.60;;
42662;SDS011;44330;51.360;6.686;2023-03-16T03:52:51;5.88;;;2.78;;
42662;SDS011;44330;51.360;6.686;2023-03-16T03:55:16;5.35;;;3.75;;
42662;SDS011;44330;51.360;6.686;2023-03-16T03:57:45;3.75;;;2.30;;
42662;SDS011;44330;51.360;6.686;2023-03-16T04:00:10;7.53;;;2.42;;
42662;SDS011;44330;51.360;6.686;2023-03-16T04:02:40;4.20;;;2.30;;
42662;SDS011;44330;51.360;6.686;2023-03-16T04:05:06;7.15;;;2.60;;
42662;SDS011;44330;51.360;6.686;2023-03-16T04:07:32;6.40;;;2.60;;
42662;SDS011;44330;51.360;6.686;2023-03-16T04:09:58;4.65;;;2.35;;
42662;SDS011;44330;51.360;6.686;2023-03-16T04:12:24;4.97;;;2.53;;
42662;SDS011;44330;51.360;6.686;2023-03-16T04:14:49;7.65;;;2.72;;
42662;SDS011;44330;51.360;6.686;2023-03-16T04:17:15;5.28;;;2.70;;
42662;SDS011;44330;51.360;6.686;2023-03-16T04:19:41;5.40;;;2.22;;
42662;SDS011;44330;51.360;6.686;2023-03-16T04:22:07;7.10;;;3.00;;
42662;SDS011;44330;51.360;6.686;2023-03-16T04:24:32;4.07;;;2.13;;
42662;SDS011;44330;51.360;6.686;2023-03-16T04:26:58;5.60;;;2.60;;
42662;SDS011;44330;51.360;6.686;2023-03-16T04:29:25;8.57;;;2.90;;
42662;SDS011;44330;51.360;6.686;2023-03-16T04:31:51;8.43;;;2.50;;
42662;SDS011;44330;51.360;6.686;2023-03-16T04:34:17;5.63;;;2.58;;
42662;SDS011;44330;51.360;6.686;2023-03-16T04:36:44;4.75;;;2.42;;
42662;SDS011;44330;51.360;6.686;2023-03-16T04:39:09;6.13;;;2.47;;
42662;SDS011;44330;51.360;6.686;2023-03-16T04:41:35;5.15;;;2.55;;
42662;SDS011;44330;51.360;6.686;2023-03-16T04:44:01;3.88;;;2.50;;
42662;SDS011;44330;51.360;6.686;2023-03-16T04:46:26;8.27;;;3.13;;
42662;SDS011;44330;51.360;6.686;2023-03-16T04:48:53;5.53;;;2.70;;
42662;SDS011;44330;51.360;6.686;2023-03-16T04:51:22;8.13;;;3.00;;
42662;SDS011;44330;51.360;6.686;2023-03-16T04:53:49;5.18;;;2.53;;
42662;SDS011;44330;51.360;6.686;2023-03-16T04:56:15;9.38;;;2.95;;
42662;SDS011;44330;51.360;6.686;2023-03-16T04:58:42;6.25;;;3.17;;
42662;SDS011;44330;51.360;6.686;2023-03-16T05:01:12;6.75;;;2.40;;
42662;SDS011;44330;51.360;6.686;2023-03-16T05:03:38;9.38;;;3.10;;
42662;SDS011;44330;51.360;6.686;2023-03-16T05:06:04;5.18;;;2.80;;
42662;SDS011;44330;51.360;6.686;2023-03-16T05:08:29;6.75;;;3.00;;
42662;SDS011;44330;51.360;6.686;2023-03-16T05:10:58;8.70;;;2.95;;
42662;SDS011;44330;51.360;6.686;2023-03-16T05:13:24;6.50;;;2.83;;
42662;SDS011;44330;51.360;6.686;2023-03-16T05:15:49;5.78;;;2.80;;
42662;SDS011;44330;51.360;6.686;2023-03-16T05:18:18;11.67;;;3.00;;
42662;SDS011;44330;51.360;6.686;2023-03-16T05:20:50;4.70;;;2.65;;
42662;SDS011;44330;51.360;6.686;2023-03-16T05:23:17;6.72;;;3.10;;
42662;SDS011;44330;51.360;6.686;2023-03-16T05:25:44;7.50;;;2.80;;
42662;SDS011;44330;51.360;6.686;2023-03-16T05:28:11;9.60;;;2.90;;
42662;SDS011;44330;51.360;6.686;2023-03-16T05:30:36;6.10;;;3.50;;
42662;SDS011;44330;51.360;6.686;2023-03-16T05:33:02;6.78;;;2.95;;
42662;SDS011;44330;51.360;6.686;2023-03-16T05:35:27;7.60;;;2.80;;
42662;SDS011;44330;51.360;6.686;2023-03-16T05:37:53;6.90;;;3.20;;
42662;SDS011;44330;51.360;6.686;2023-03-16T05:40:18;8.07;;;3.13;;
42662;SDS011;44330;51.360;6.686;2023-03-16T05:42:47;5.57;;;3.20;;
42662;SDS011;44330;51.360;6.686;2023-03-16T05:45:18;7.88;;;3.40;;
42662;SDS011;44330;51.360;6.686;2023-03-16T05:47:44;6.18;;;3.78;;
42662;SDS011;44330;51.360;6.686;2023-03-16T05:50:10;11.32;;;4.18;;
42662;SDS011;44330;51.360;6.686;2023-03-16T05:52:38;7.60;;;3.40;;
42662;SDS011;44330;51.360;6.686;2023-03-16T05:55:04;7.22;;;3.45;;
42662;SDS011;44330;51.360;6.686;2023-03-16T05:57:32;8.23;;;4.30;;
42662;SDS011;44330;51.360;6.686;2023-03-16T05:59:58;8.75;;;3.58;;
42662;SDS011;44330;51.360;6.686;2023-03-16T06:02:24;5.45;;;3.45;;
42662;SDS011;44330;51.360;6.686;2023-03-16T06:04:49;7.85;;;3.92;;
42662;SDS011;44330;51.360;6.686;2023-03-16T06:07:15;6.88;;;3.63;;
42662;SDS011;44330;51.360;6.686;2023-03-16T06:09:40;8.48;;;4.32;;
42662;SDS011;44330;51.360;6.686;2023-03-16T06:12:06;7.78;;;3.97;;
42662;SDS011;44330;51.360;6.686;2023-03-16T06:14:33;9.15;;;4.40;;
42662;SDS011;44330;51.360;6.686;2023-03-16T06:16:59;9.98;;;4.63;;
42662;SDS011;44330;51.360;6.686;2023-03-16T06:19:24;9.70;;;4.07;;
42662;SDS011;44330;51.360;6.686;2023-03-16T06:21:50;12.45;;;4.53;;
42662;SDS011;44330;51.360;6.686;2023-03-16T06:24:15;7.50;;;4.15;;
42662;SDS011;44330;51.360;6.686;2023-03-16T06:26:41;11.05;;;4.53;;
42662;SDS011;44330;51.360;6.686;2023-03-16T06:29:06;5.60;;;3.67;;
42662;SDS011;44330;51.360;6.686;2023-03-16T06:31:32;6.60;;;4.10;;
42662;SDS011;44330;51.360;6.686;2023-03-16T06:33:58;9.75;;;4.22;;
42662;SDS011;44330;51.360;6.686;2023-03-16T06:36:24;10.45;;;4.18;;
42662;SDS011;44330;51.360;6.686;2023-03-16T06:38:50;9.15;;;4.35;;
42662;SDS011;44330;51.360;6.686;2023-03-16T06:41:16;8.30;;;4.82;;
42662;SDS011;44330;51.360;6.686;2023-03-16T06:43:41;11.32;;;4.82;;
42662;SDS011;44330;51.360;6.686;2023-03-16T06:46:07;9.68;;;4.43;;
42662;SDS011;44330;51.360;6.686;2023-03-16T06:48:32;10.60;;;4.60;;
42662;SDS011;44330;51.360;6.686;2023-03-16T06:50:58;12.13;;;4.25;;
42662;SDS011;44330;51.360;6.686;2023-03-16T06:53:24;11.02;;;4.45;;
42662;SDS011;44330;51.360;6.686;2023-03-16T06:55:50;8.52;;;4.70;;
42662;SDS011;44330;51.360;6.686;2023-03-16T06:58:15;10.32;;;5.03;;
42662;SDS011;44330;51.360;6.686;2023-03-16T07:00:41;10.77;;;4.60;;
42662;SDS011;44330;51.360;6.686;2023-03-16T07:03:07;10.50;;;4.95;;
42662;SDS011;44330;51.360;6.686;2023-03-16T07:05:32;13.27;;;4.90;;
42662;SDS011;44330;51.360;6.686;2023-03-16T07:08:01;9.98;;;4.63;;
42662;SDS011;44330;51.360;6.686;2023-03-16T07:10:26;8.98;;;4.57;;
42662;SDS011;44330;51.360;6.686;2023-03-16T07:12:52;8.55;;;4.30;;
42662;SDS011;44330;51.360;6.686;2023-03-16T07:15:19;10.13;;;5.13;;
42662;SDS011;44330;51.360;6.686;2023-03-16T07:17:45;10.80;;;5.03;;
42662;SDS011;44330;51.360;6.686;2023-03-16T07:20:11;12.65;;;4.72;;
42662;SDS011;44330;51.360;6.686;2023-03-16T07:22:37;7.95;;;4.45;;
42662;SDS011;44330;51.360;6.686;2023-03-16T07:25:04;10.85;;;4.03;;
42662;SDS011;44330;51.360;6.686;2023-03-16T07:27:30;7.15;;;4.40;;
42662;SDS011;44330;51.360;6.686;2023-03-16T07:29:56;11.60;;;4.57;;
42662;SDS011;44330;51.360;6.686;2023-03-16T07:32:21;7.22;;;4.40;;
42662;SDS011;44330;51.360;6.686;2023-03-16T07:34:47;8.23;;;4.57;;
42662;SDS011;44330;51.360;6.686;2023-03-16T07:37:13;6.93;;;4.05;;
42662;SDS011;44330;51.360;6.686;2023-03-16T07:39:42;7.30;;;4.60;;
42662;SDS011;44330;51.360;6.686;2023-03-16T07:42:11;5.93;;;3.28;;
42662;SDS011;44330;51.360;6.686;2023-03-16T07:44:38;7.55;;;3.92;;
42662;SDS011;44330;51.360;6.686;2023-03-16T07:47:04;12.15;;;4.47;;
42662;SDS011;44330;51.360;6.686;2023-03-16T07:49:31;8.43;;;4.55;;
42662;SDS011;44330;51.360;6.686;2023-03-16T07:51:56;6.85;;;4.13;;
42662;SDS011;44330;51.360;6.686;2023-03-16T07:54:22;11.32;;;4.88;;
42662;SDS011;44330;51.360;6.686;2023-03-16T07:56:50;5.72;;;3.42;;
42662;SDS011;44330;51.360;6.686;2023-03-16T07:59:16;9.77;;;4.25;;
42662;SDS011;44330;51.360;6.686;2023-03-16T08:01:41;7.82;;;4.63;;
42662;SDS011;44330;51.360;6.686;2023-03-16T08:04:08;11.00;;;4.53;;
42662;SDS011;44330;51.360;6.686;2023-03-16T08:06:36;9.02;;;4.90;;
42662;SDS011;44330;51.360;6.686;2023-03-16T08:09:01;7.50;;;4.72;;
42662;SDS011;44330;51.360;6.686;2023-03-16T08:11:27;8.45;;;4.63;;
42662;SDS011;44330;51.360;6.686;2023-03-16T08:13:52;9.85;;;4.40;;
42662;SDS011;44330;51.360;6.686;2023-03-16T08:16:20;9.55;;;4.72;;
42662;SDS011;44330;51.360;6.686;2023-03-16T08:18:46;7.00;;;4.35;;
42662;SDS011;44330;51.360;6.686;2023-03-16T08:21:13;6.90;;;4.40;;
42662;SDS011;44330;51.360;6.686;2023-03-16T08:23:39;9.18;;;4.45;;
42662;SDS011;44330;51.360;6.686;2023-03-16T08:26:05;12.77;;;4.43;;
42662;SDS011;44330;51.360;6.686;2023-03-16T08:28:33;8.88;;;4.53;;
42662;SDS011;44330;51.360;6.686;2023-03-16T08:31:00;7.70;;;4.20;;
42662;SDS011;44330;51.360;6.686;2023-03-16T08:33:26;11.82;;;4.72;;
42662;SDS011;44330;51.360;6.686;2023-03-16T08:35:52;9.40;;;4.57;;
42662;SDS011;44330;51.360;6.686;2023-03-16T08:38:17;8.38;;;4.53;;
42662;SDS011;44330;51.360;6.686;2023-03-16T08:40:44;9.23;;;4.93;;
42662;SDS011;44330;51.360;6.686;2023-03-16T08:43:12;13.90;;;5.63;;
42662;SDS011;44330;51.360;6.686;2023-03-16T08:45:39;8.52;;;4.53;;
42662;SDS011;44330;51.360;6.686;2023-03-16T08:48:05;12.52;;;4.80;;
42662;SDS011;44330;51.360;6.686;2023-03-16T08:50:31;10.43;;;5.20;;
42662;SDS011;44330;51.360;6.686;2023-03-16T08:52:57;10.05;;;5.00;;
42662;SDS011;44330;51.360;6.686;2023-03-16T08:55:23;6.95;;;4.50;;
42662;SDS011;44330;51.360;6.686;2023-03-16T08:57:49;13.50;;;5.07;;
42662;SDS011;44330;51.360;6.686;2023-03-16T09:00:14;8.38;;;4.90;;
42662;SDS011;44330;51.360;6.686;2023-03-16T09:02:41;8.90;;;5.35;;
42662;SDS011;44330;51.360;6.686;2023-03-16T09:05:08;6.90;;;4.38;;
42662;SDS011;44330;51.360;6.686;2023-03-16T09:07:35;8.43;;;4.40;;
42662;SDS011;44330;51.360;6.686;2023-03-16T09:10:02;11.00;;;5.70;;
42662;SDS011;44330;51.360;6.686;2023-03-16T09:12:31;13.82;;;5.55;;
42662;SDS011;44330;51.360;6.686;2023-03-16T09:14:59;7.35;;;4.82;;
42662;SDS011;44330;51.360;6.686;2023-03-16T09:17:26;10.07;;;4.72;;
42662;SDS011;44330;51.360;6.686;2023-03-16T09:19:52;9.57;;;4.65;;
42662;SDS011;44330;51.360;6.686;2023-03-16T09:22:18;11.02;;;5.38;;
42662;SDS011;44330;51.360;6.686;2023-03-16T09:24:44;12.52;;;4.90;;
42662;SDS011;44330;51.360;6.686;2023-03-16T09:27:10;9.82;;;4.82;;
42662;SDS011;44330;51.360;6.686;2023-03-16T09:29:36;10.82;;;4.95;;
42662;SDS011;44330;51.360;6.686;2023-03-16T09:32:01;8.20;;;4.88;;
42662;SDS011;44330;51.360;6.686;2023-03-16T09:34:28;8.55;;;4.85;;
42662;SDS011;44330;51.360;6.686;2023-03-16T09:36:53;8.10;;;4.45;;
42662;SDS011;44330;51.360;6.686;2023-03-16T09:39:19;7.22;;;4.75;;
42662;SDS011;44330;51.360;6.686;2023-03-16T09:41:54;5.57;;;4.15;;
42662;SDS011;44330;51.360;6.686;2023-03-16T09:47:15;8.10;;;4.20;;
42662;SDS011;44330;51.360;6.686;2023-03-16T09:49:47;10.10;;;4.70;;
42662;SDS011;44330;51.360;6.686;2023-03-16T09:52:17;9.40;;;4.65;;
42662;SDS011;44330;51.360;6.686;2023-03-16T09:54:55;9.95;;;4.93;;
42662;SDS011;44330;51.360;6.686;2023-03-16T09:57:36;8.38;;;4.80;;
42662;SDS011;44330;51.360;6.686;2023-03-16T10:05:16;16.33;;;4.78;;
42662;SDS011;44330;51.360;6.686;2023-03-16T10:13:33;7.93;;;4.57;;
42662;SDS011;44330;51.360;6.686;2023-03-16T10:16:20;11.00;;;4.50;;
42662;SDS011;44330;51.360;6.686;2023-03-16T10:21:26;9.82;;;4.30;;
42662;SDS011;44330;51.360;6.686;2023-03-16T10:23:55;11.55;;;4.28;;
42662;SDS011;44330;51.360;6.686;2023-03-16T10:26:27;11.07;;;4.80;;
42662;SDS011;44330;51.360;6.686;2023-03-16T10:28:59;12.75;;;4.35;;
42662;SDS011;44330;51.360;6.686;2023-03-16T10:31:25;8.38;;;4.65;;
42662;SDS011;44330;51.360;6.686;2023-03-16T10:33:53;10.48;;;4.78;;
42662;SDS011;44330;51.360;6.686;2023-03-16T10:36:28;6.47;;;4.18;;
42662;SDS011;44330;51.360;6.686;2023-03-16T10:39:13;8.68;;;4.30;;
42662;SDS011;44330;51.360;6.686;2023-03-16T10:41:42;5.70;;;3.83;;
42662;SDS011;44330;51.360;6.686;2023-03-16T10:44:21;11.73;;;4.20;;
42662;SDS011;44330;51.360;6.686;2023-03-16T10:46:50;7.47;;;4.30;;
42662;SDS011;44330;51.360;6.686;2023-03-16T10:49:23;10.55;;;3.92;;
42662;SDS011;44330;51.360;6.686;2023-03-16T10:51:58;10.25;;;4.20;;
42662;SDS011;44330;51.360;6.686;2023-03-16T10:57:11;6.55;;;3.33;;
42662;SDS011;44330;51.360;6.686;2023-03-16T10:59:39;6.05;;;3.47;;
42662;SDS011;44330;51.360;6.686;2023-03-16T11:02:17;10.98;;;3.80;;
42662;SDS011;44330;51.360;6.686;2023-03-16T11:04:48;4.90;;;3.35;;
42662;SDS011;44330;51.360;6.686;2023-03-16T11:07:15;5.15;;;3.08;;
42662;SDS011;44330;51.360;6.686;2023-03-16T11:09:42;9.43;;;3.88;;
42662;SDS011;44330;51.360;6.686;2023-03-16T11:12:13;7.03;;;3.70;;
42662;SDS011;44330;51.360;6.686;2023-03-16T11:14:45;6.40;;;3.53;;
42662;SDS011;44330;51.360;6.686;2023-03-16T11:17:14;5.65;;;3.55;;
42662;SDS011;44330;51.360;6.686;2023-03-16T11:22:27;7.80;;;3.28;;
42662;SDS011;44330;51.360;6.686;2023-03-16T11:27:46;3.95;;;2.30;;
42662;SDS011;44330;51.360;6.686;2023-03-16T11:33:32;5.60;;;3.03;;
42662;SDS011;44330;51.360;6.686;2023-03-16T11:36:09;4.60;;;3.00;;
42662;SDS011;44330;51.360;6.686;2023-03-16T11:44:51;3.88;;;2.58;;
42662;SDS011;44330;51.360;6.686;2023-03-16T11:47:54;4.93;;;2.67;;
42662;SDS011;44330;51.360;6.686;2023-03-16T11:56:46;6.30;;;2.70;;
42662;SDS011;44330;51.360;6.686;2023-03-16T12:05:05;6.97;;;3.30;;
42662;SDS011;44330;51.360;6.686;2023-03-16T12:07:57;4.13;;;2.90;;
42662;SDS011;44330;51.360;6.686;2023-03-16T12:13:36;7.32;;;3.00;;
42662;SDS011;44330;51.360;6.686;2023-03-16T12:16:24;5.75;;;2.30;;
42662;SDS011;44330;51.360;6.686;2023-03-16T12:18:57;5.63;;;2.67;;
42662;SDS011;44330;51.360;6.686;2023-03-16T12:21:33;6.00;;;2.58;;
42662;SDS011;44330;51.360;6.686;2023-03-16T12:24:04;7.22;;;3.15;;
42662;SDS011;44330;51.360;6.686;2023-03-16T12:26:37;5.22;;;2.58;;
42662;SDS011;44330;51.360;6.686;2023-03-16T12:29:08;8.07;;;2.75;;
42662;SDS011;44330;51.360;6.686;2023-03-16T12:31:56;7.25;;;2.50;;
42662;SDS011;44330;51.360;6.686;2023-03-16T12:34:28;9.75;;;2.65;;
42662;SDS011;44330;51.360;6.686;2023-03-16T12:37:08;5.68;;;2.58;;
42662;SDS011;44330;51.360;6.686;2023-03-16T12:48:12;4.45;;;2.40;;
42662;SDS011;44330;51.360;6.686;2023-03-16T12:50:52;7.80;;;2.97;;
42662;SDS011;44330;51.360;6.686;2023-03-16T12:53:24;5.00;;;2.30;;
42662;SDS011;44330;51.360;6.686;2023-03-16T12:56:04;4.25;;;2.40;;
42662;SDS011;44330;51.360;6.686;2023-03-16T12:58:32;4.75;;;2.85;;
42662;SDS011;44330;51.360;6.686;2023-03-16T13:00:58;4.03;;;2.25;;
42662;SDS011;44330;51.360;6.686;2023-03-16T13:03:24;3.03;;;2.13;;
42662;SDS011;44330;51.360;6.686;2023-03-16T13:05:58;5.25;;;2.55;;
42662;SDS011;44330;51.360;6.686;2023-03-16T13:08:24;4.78;;;2.20;;
42662;SDS011;44330;51.360;6.686;2023-03-16T13:11:12;10.48;;;2.53;;
42662;SDS011;44330;51.360;6.686;2023-03-16T13:16:29;6.88;;;2.22;;
42662;SDS011;44330;51.360;6.686;2023-03-16T13:18:57;5.35;;;2.30;;
42662;SDS011;44330;51.360;6.686;2023-03-16T13:21:35;7.80;;;2.38;;
42662;SDS011;44330;51.360;6.686;2023-03-16T13:24:25;3.80;;;2.10;;
42662;SDS011;44330;51.360;6.686;2023-03-16T13:27:10;6.50;;;2.25;;
42662;SDS011;44330;51.360;6.686;2023-03-16T13:29:51;4.85;;;1.92;;
42662;SDS011;44330;51.360;6.686;2023-03-16T13:32:29;5.10;;;2.17;;
42662;SDS011;44330;51.360;6.686;2023-03-16T13:35:03;3.55;;;1.88;;
42662;SDS011;44330;51.360;6.686;2023-03-16T13:37:29;7.88;;;2.05;;
42662;SDS011;44330;51.360;6.686;2023-03-16T13:39:56;5.80;;;2.10;;
42662;SDS011;44330;51.360;6.686;2023-03-16T13:42:24;4.80;;;2.25;;
42662;SDS011;44330;51.360;6.686;2023-03-16T13:45:09;5.80;;;1.90;;
42662;SDS011;44330;51.360;6.686;2023-03-16T13:47:40;3.03;;;1.63;;
42662;SDS011;44330;51.360;6.686;2023-03-16T13:50:11;4.28;;;1.88;;
42662;SDS011;44330;51.360;6.686;2023-03-16T13:52:38;5.63;;;1.73;;
42662;SDS011;44330;51.360;6.686;2023-03-16T13:57:41;3.45;;;1.70;;
42662;SDS011;44330;51.360;6.686;2023-03-16T14:02:45;2.30;;;1.20;;
42662;SDS011;44330;51.360;6.686;2023-03-16T14:05:19;5.05;;;2.20;;
42662;SDS011;44330;51.360;6.686;2023-03-16T14:08:00;4.13;;;1.65;;
42662;SDS011;44330;51.360;6.686;2023-03-16T14:10:54;6.45;;;1.77;;
42662;SDS011;44330;51.360;6.686;2023-03-16T14:13:36;4.93;;;1.90;;
42662;SDS011;44330;51.360;6.686;2023-03-16T14:16:12;4.05;;;1.95;;
42662;SDS011;44330;51.360;6.686;2023-03-16T14:18:42;7.60;;;1.95;;
42662;SDS011;44330;51.360;6.686;2023-03-16T14:23:56;6.38;;;1.75;;
42662;SDS011;44330;51.360;6.686;2023-03-16T14:26:41;6.22;;;1.80;;
42662;SDS011;44330;51.360;6.686;2023-03-16T14:31:59;2.63;;;1.40;;
42662;SDS011;44330;51.360;6.686;2023-03-16T14:34:35;3.00;;;1.25;;
42662;SDS011;44330;51.360;6.686;2023-03-16T14:39:36;2.60;;;1.48;;
42662;SDS011;44330;51.360;6.686;2023-03-16T14:44:49;4.28;;;1.30;;
42662;SDS011;44330;51.360;6.686;2023-03-16T14:47:20;8.15;;;1.48;;
42662;SDS011;44330;51.360;6.686;2023-03-16T14:49:47;6.30;;;1.73;;
42662;SDS011;44330;51.360;6.686;2023-03-16T14:52:20;3.20;;;1.40;;
42662;SDS011;44330;51.360;6.686;2023-03-16T14:54:51;4.50;;;1.33;;
42662;SDS011;44330;51.360;6.686;2023-03-16T14:57:18;3.15;;;1.50;;
42662;SDS011;44330;51.360;6.686;2023-03-16T14:59:46;7.85;;;1.17;;
42662;SDS011;44330;51.360;6.686;2023-03-16T15:02:16;4.00;;;1.67;;
42662;SDS011;44330;51.360;6.686;2023-03-16T15:04:52;3.72;;;1.60;;
42662;SDS011;44330;51.360;6.686;2023-03-16T15:07:22;5.18;;;1.70;;
42662;SDS011;44330;51.360;6.686;2023-03-16T15:09:54;3.33;;;1.20;;
42662;SDS011;44330;51.360;6.686;2023-03-16T15:12:24;4.18;;;1.63;;
42662;SDS011;44330;51.360;6.686;2023-03-16T15:14:50;8.18;;;1.40;;
42662;SDS011;44330;51.360;6.686;2023-03-16T15:17:35;5.00;;;1.25;;
42662;SDS011;44330;51.360;6.686;2023-03-16T15:20:01;2.88;;;1.50;;
42662;SDS011;44330;51.360;6.686;2023-03-16T15:22:34;4.18;;;1.77;;
42662;SDS011;44330;51.360;6.686;2023-03-16T15:25:06;4.10;;;1.60;;
42662;SDS011;44330;51.360;6.686;2023-03-16T15:27:44;2.72;;;1.27;;
42662;SDS011;44330;51.360;6.686;2023-03-16T15:30:14;2.70;;;1.60;;
42662;SDS011;44330;51.360;6.686;2023-03-16T15:32:45;3.50;;;1.50;;
42662;SDS011;44330;51.360;6.686;2023-03-16T15:35:11;1.77;;;1.38;;
42662;SDS011;44330;51.360;6.686;2023-03-16T15:37:37;3.70;;;1.73;;
42662;SDS011;44330;51.360;6.686;2023-03-16T15:40:16;3.38;;;1.38;;
42662;SDS011;44330;51.360;6.686;2023-03-16T15:42:47;3.17;;;1.70;;
42662;SDS011;44330;51.360;6.686;2023-03-16T15:45:13;7.05;;;1.75;;
42662;SDS011;44330;51.360;6.686;2023-03-16T15:47:45;4.18;;;1.80;;
42662;SDS011;44330;51.360;6.686;2023-03-16T15:50:12;3.83;;;1.70;;
42662;SDS011;44330;51.360;6.686;2023-03-16T15:52:42;8.65;;;1.92;;
42662;SDS011;44330;51.360;6.686;2023-03-16T15:55:15;5.72;;;1.65;;
42662;SDS011;44330;51.360;6.686;2023-03-16T15:57:47;4.80;;;1.85;;
42662;SDS011;44330;51.360;6.686;2023-03-16T16:00:19;3.35;;;1.63;;
42662;SDS011;44330;51.360;6.686;2023-03-16T16:02:51;9.20;;;2.20;;
42662;SDS011;44330;51.360;6.686;2023-03-16T16:05:17;7.93;;;1.95;;
42662;SDS011;44330;51.360;6.686;2023-03-16T16:07:42;3.53;;;1.40;;
42662;SDS011;44330;51.360;6.686;2023-03-16T16:10:10;9.32;;;2.13;;
42662;SDS011;44330;51.360;6.686;2023-03-16T16:15:05;4.90;;;1.70;;
42662;SDS011;44330;51.360;6.686;2023-03-16T16:17:41;7.40;;;2.03;;
42662;SDS011;44330;51.360;6.686;2023-03-16T16:20:17;4.25;;;1.80;;
42662;SDS011;44330;51.360;6.686;2023-03-16T16:22:45;6.27;;;1.90;;
42662;SDS011;44330;51.360;6.686;2023-03-16T16:25:11;5.72;;;2.10;;
42662;SDS011;44330;51.360;6.686;2023-03-16T16:27:38;6.32;;;1.90;;